Terminal Aerodrome Forecast
Issued by NWS Jackson, MS

Home | Current Version | Previous Version | Text Only | Print | Product List | Glossary On
Versions: 1 2 3 4 5 6 7 8 9 10 11 12
000
FTUS44 KJAN 080520
TAFMEI
TAF
KMEI 080520Z 0806/0906 21003KT P6SM SCT250
     FM081100 24004KT P6SM OVC050
     FM081500 30011G17KT P6SM OVC050
     FM082300 28008KT P6SM OVC050=

USA.gov is the U.S. government's official web portal to all federal, state and local government web resources and services.